sensor_id;sensor_type;location;lat;lon;timestamp;pressure;altitude;pressure_sealevel;temperature;humidity
23166;BME280;11751;42.700;24.170;2022-10-23T00:01:53;94399.50;;;9.54;89.98
23166;BME280;11751;42.700;24.170;2022-10-23T00:04:22;94412.38;;;9.57;89.33
23166;BME280;11751;42.700;24.170;2022-10-23T00:06:51;94411.84;;;9.58;89.01
23166;BME280;11751;42.700;24.170;2022-10-23T00:09:20;94404.00;;;9.57;89.15
23166;BME280;11751;42.700;24.170;2022-10-23T00:11:47;94415.72;;;9.22;91.35
23166;BME280;11751;42.700;24.170;2022-10-23T00:14:16;94413.75;;;9.30;91.03
23166;BME280;11751;42.700;24.170;2022-10-23T00:16:41;94407.72;;;9.39;90.16
23166;BME280;11751;42.700;24.170;2022-10-23T00:19:07;94411.78;;;9.38;90.25
23166;BME280;11751;42.700;24.170;2022-10-23T00:21:32;94406.22;;;9.38;89.86
23166;BME280;11751;42.700;24.170;2022-10-23T00:23:58;94402.91;;;9.27;90.46
23166;BME280;11751;42.700;24.170;2022-10-23T00:26:23;94412.25;;;9.29;90.53
23166;BME280;11751;42.700;24.170;2022-10-23T00:28:51;94414.44;;;9.10;92.33
23166;BME280;11751;42.700;24.170;2022-10-23T00:31:19;94414.22;;;9.21;91.27
23166;BME280;11751;42.700;24.170;2022-10-23T00:33:46;94413.75;;;9.30;90.58
23166;BME280;11751;42.700;24.170;2022-10-23T00:36:14;94410.34;;;9.24;91.06
23166;BME280;11751;42.700;24.170;2022-10-23T00:38:41;94413.31;;;9.26;91.28
23166;BME280;11751;42.700;24.170;2022-10-23T00:41:08;94403.06;;;9.08;92.04
23166;BME280;11751;42.700;24.170;2022-10-23T00:43:34;94398.25;;;8.96;92.84
23166;BME280;11751;42.700;24.170;2022-10-23T00:46:00;94390.94;;;9.06;92.75
23166;BME280;11751;42.700;24.170;2022-10-23T00:48:27;94386.84;;;8.94;93.72
23166;BME280;11751;42.700;24.170;2022-10-23T00:50:53;94401.22;;;9.11;92.62
23166;BME280;11751;42.700;24.170;2022-10-23T00:53:20;94403.50;;;9.12;92.73
23166;BME280;11751;42.700;24.170;2022-10-23T00:55:48;94395.00;;;9.18;92.70
23166;BME280;11751;42.700;24.170;2022-10-23T00:58:17;94400.97;;;9.22;91.99
23166;BME280;11751;42.700;24.170;2022-10-23T01:00:47;94401.06;;;9.29;91.39
23166;BME280;11751;42.700;24.170;2022-10-23T01:03:14;94399.44;;;9.33;91.50
23166;BME280;11751;42.700;24.170;2022-10-23T01:05:48;94409.66;;;9.31;91.23
23166;BME280;11751;42.700;24.170;2022-10-23T01:08:22;94406.31;;;9.32;91.35
23166;BME280;11751;42.700;24.170;2022-10-23T01:11:27;94403.25;;;9.23;92.13
23166;BME280;11751;42.700;24.170;2022-10-23T01:14:00;94419.69;;;9.27;91.86
23166;BME280;11751;42.700;24.170;2022-10-23T01:27:20;94404.75;;;9.24;93.18
23166;BME280;11751;42.700;24.170;2022-10-23T01:30:06;94405.72;;;9.14;93.50
23166;BME280;11751;42.700;24.170;2022-10-23T01:37:48;94415.03;;;9.42;93.08
23166;BME280;11751;42.700;24.170;2022-10-23T01:40:23;94418.44;;;9.48;92.62
23166;BME280;11751;42.700;24.170;2022-10-23T01:42:54;94421.88;;;9.54;92.32
23166;BME280;11751;42.700;24.170;2022-10-23T01:45:31;94421.78;;;9.46;91.84
23166;BME280;11751;42.700;24.170;2022-10-23T01:48:00;94428.53;;;9.51;91.35
23166;BME280;11751;42.700;24.170;2022-10-23T01:50:28;94436.72;;;9.49;90.79
23166;BME280;11751;42.700;24.170;2022-10-23T01:52:55;94422.19;;;9.50;90.65
23166;BME280;11751;42.700;24.170;2022-10-23T01:55:22;94424.44;;;9.52;90.51
23166;BME280;11751;42.700;24.170;2022-10-23T01:57:48;94424.03;;;9.48;90.19
23166;BME280;11751;42.700;24.170;2022-10-23T02:00:17;94421.44;;;9.50;90.11
23166;BME280;11751;42.700;24.170;2022-10-23T02:02:45;94428.75;;;9.53;90.25
23166;BME280;11751;42.700;24.170;2022-10-23T02:05:16;94435.19;;;9.48;90.58
23166;BME280;11751;42.700;24.170;2022-10-23T02:07:43;94433.94;;;9.36;91.30
23166;BME280;11751;42.700;24.170;2022-10-23T02:10:10;94421.78;;;9.46;91.27
23166;BME280;11751;42.700;24.170;2022-10-23T02:15:20;94422.69;;;9.62;90.78
23166;BME280;11751;42.700;24.170;2022-10-23T02:20:41;94432.03;;;9.64;91.50
23166;BME280;11751;42.700;24.170;2022-10-23T02:23:20;94439.88;;;9.66;91.73
23166;BME280;11751;42.700;24.170;2022-10-23T02:25:52;94435.38;;;9.63;91.47
23166;BME280;11751;42.700;24.170;2022-10-23T02:28:23;94430.19;;;9.67;91.30
23166;BME280;11751;42.700;24.170;2022-10-23T02:30:51;94436.56;;;9.67;91.30
23166;BME280;11751;42.700;24.170;2022-10-23T02:33:18;94434.63;;;9.62;91.03
23166;BME280;11751;42.700;24.170;2022-10-23T02:35:44;94434.81;;;9.44;91.85
23166;BME280;11751;42.700;24.170;2022-10-23T02:38:39;94436.56;;;9.21;93.14
23166;BME280;11751;42.700;24.170;2022-10-23T02:41:12;94436.44;;;9.27;92.83
23166;BME280;11751;42.700;24.170;2022-10-23T02:49:46;94457.00;;;9.03;95.72
23166;BME280;11751;42.700;24.170;2022-10-23T02:52:20;94450.75;;;9.10;96.74
23166;BME280;11751;42.700;24.170;2022-10-23T02:57:58;94449.13;;;9.28;96.72
23166;BME280;11751;42.700;24.170;2022-10-23T03:00:29;94445.75;;;9.42;96.17
23166;BME280;11751;42.700;24.170;2022-10-23T03:03:01;94442.19;;;9.41;96.32
23166;BME280;11751;42.700;24.170;2022-10-23T03:05:35;94449.25;;;9.68;95.11
23166;BME280;11751;42.700;24.170;2022-10-23T03:08:12;94455.47;;;9.61;95.13
23166;BME280;11751;42.700;24.170;2022-10-23T03:10:38;94449.88;;;9.61;94.05
23166;BME280;11751;42.700;24.170;2022-10-23T03:13:04;94465.75;;;9.79;93.13
23166;BME280;11751;42.700;24.170;2022-10-23T03:15:30;94464.31;;;9.86;92.53
23166;BME280;11751;42.700;24.170;2022-10-23T03:17:55;94451.97;;;9.81;92.50
23166;BME280;11751;42.700;24.170;2022-10-23T03:20:21;94471.66;;;9.76;92.80
23166;BME280;11751;42.700;24.170;2022-10-23T03:22:46;94469.34;;;9.67;93.73
23166;BME280;11751;42.700;24.170;2022-10-23T03:25:12;94470.94;;;9.75;92.66
23166;BME280;11751;42.700;24.170;2022-10-23T03:27:37;94463.50;;;9.78;91.98
23166;BME280;11751;42.700;24.170;2022-10-23T03:30:03;94464.28;;;9.65;92.27
23166;BME280;11751;42.700;24.170;2022-10-23T03:32:29;94465.47;;;9.70;92.28
23166;BME280;11751;42.700;24.170;2022-10-23T03:34:55;94476.31;;;9.73;92.05
23166;BME280;11751;42.700;24.170;2022-10-23T03:37:20;94466.31;;;9.65;91.54
23166;BME280;11751;42.700;24.170;2022-10-23T03:39:46;94462.28;;;9.53;92.17
23166;BME280;11751;42.700;24.170;2022-10-23T03:42:11;94470.69;;;9.53;92.30
23166;BME280;11751;42.700;24.170;2022-10-23T03:44:37;94467.25;;;9.47;92.40
23166;BME280;11751;42.700;24.170;2022-10-23T03:47:02;94466.72;;;9.48;92.60
23166;BME280;11751;42.700;24.170;2022-10-23T03:49:28;94473.94;;;9.44;92.61
23166;BME280;11751;42.700;24.170;2022-10-23T03:51:53;94476.91;;;9.46;92.11
23166;BME280;11751;42.700;24.170;2022-10-23T03:54:21;94476.06;;;9.38;91.97
23166;BME280;11751;42.700;24.170;2022-10-23T03:56:48;94476.84;;;9.38;92.13
23166;BME280;11751;42.700;24.170;2022-10-23T03:59:13;94483.63;;;9.30;92.00
23166;BME280;11751;42.700;24.170;2022-10-23T04:01:39;94484.69;;;9.27;92.18
23166;BME280;11751;42.700;24.170;2022-10-23T04:04:04;94476.53;;;9.29;92.08
23166;BME280;11751;42.700;24.170;2022-10-23T04:06:29;94482.13;;;9.16;92.37
23166;BME280;11751;42.700;24.170;2022-10-23T04:08:55;94492.44;;;9.08;93.16
23166;BME280;11751;42.700;24.170;2022-10-23T04:11:20;94495.91;;;9.14;92.71
23166;BME280;11751;42.700;24.170;2022-10-23T04:13:46;94494.59;;;9.02;93.22
23166;BME280;11751;42.700;24.170;2022-10-23T04:16:11;94493.84;;;9.02;93.02
23166;BME280;11751;42.700;24.170;2022-10-23T04:18:39;94497.81;;;8.93;92.90
23166;BME280;11751;42.700;24.170;2022-10-23T04:21:04;94499.34;;;8.94;92.93
23166;BME280;11751;42.700;24.170;2022-10-23T04:23:30;94495.13;;;8.88;93.32
23166;BME280;11751;42.700;24.170;2022-10-23T04:25:56;94504.47;;;8.90;93.71
23166;BME280;11751;42.700;24.170;2022-10-23T04:28:22;94492.88;;;8.86;93.76
23166;BME280;11751;42.700;24.170;2022-10-23T04:30:47;94510.91;;;8.72;94.65
23166;BME280;11751;42.700;24.170;2022-10-23T04:33:13;94508.34;;;8.74;94.22
23166;BME280;11751;42.700;24.170;2022-10-23T04:35:38;94506.72;;;8.66;94.47
23166;BME280;11751;42.700;24.170;2022-10-23T04:38:03;94513.97;;;8.43;96.94
23166;BME280;11751;42.700;24.170;2022-10-23T04:40:29;94492.19;;;8.42;97.73
23166;BME280;11751;42.700;24.170;2022-10-23T04:42:54;94507.69;;;8.55;97.23
23166;BME280;11751;42.700;24.170;2022-10-23T04:45:20;94508.63;;;8.58;96.83
23166;BME280;11751;42.700;24.170;2022-10-23T04:47:45;94509.81;;;8.62;96.29
23166;BME280;11751;42.700;24.170;2022-10-23T04:50:11;94505.97;;;8.65;96.26
23166;BME280;11751;42.700;24.170;2022-10-23T04:52:36;94509.19;;;8.56;96.63
23166;BME280;11751;42.700;24.170;2022-10-23T04:55:02;94497.56;;;8.52;97.43
23166;BME280;11751;42.700;24.170;2022-10-23T04:57:28;94500.81;;;8.69;96.51
23166;BME280;11751;42.700;24.170;2022-10-23T04:59:53;94498.34;;;8.66;96.38
23166;BME280;11751;42.700;24.170;2022-10-23T05:02:19;94512.75;;;8.70;96.03
23166;BME280;11751;42.700;24.170;2022-10-23T05:04:44;94507.03;;;8.62;96.52
23166;BME280;11751;42.700;24.170;2022-10-23T05:07:09;94497.78;;;8.67;96.60
23166;BME280;11751;42.700;24.170;2022-10-23T05:09:35;94516.91;;;8.76;96.01
23166;BME280;11751;42.700;24.170;2022-10-23T05:12:00;94523.59;;;8.73;95.76
23166;BME280;11751;42.700;24.170;2022-10-23T05:14:26;94524.66;;;8.83;94.68
23166;BME280;11751;42.700;24.170;2022-10-23T05:16:56;94540.88;;;8.85;94.99
23166;BME280;11751;42.700;24.170;2022-10-23T05:19:27;94530.91;;;8.89;94.80
23166;BME280;11751;42.700;24.170;2022-10-23T05:21:55;94538.41;;;8.81;94.94
23166;BME280;11751;42.700;24.170;2022-10-23T05:24:22;94533.47;;;8.87;94.23
23166;BME280;11751;42.700;24.170;2022-10-23T05:26:48;94538.00;;;8.90;94.11
23166;BME280;11751;42.700;24.170;2022-10-23T05:29:33;94545.81;;;8.92;94.29
23166;BME280;11751;42.700;24.170;2022-10-23T05:32:01;94542.28;;;8.91;94.18
23166;BME280;11751;42.700;24.170;2022-10-23T05:34:29;94555.19;;;8.94;94.17
23166;BME280;11751;42.700;24.170;2022-10-23T05:36:55;94554.53;;;9.01;93.42
23166;BME280;11751;42.700;24.170;2022-10-23T05:39:22;94562.47;;;8.97;94.01
23166;BME280;11751;42.700;24.170;2022-10-23T05:41:47;94560.25;;;9.09;93.34
23166;BME280;11751;42.700;24.170;2022-10-23T05:44:13;94559.91;;;8.99;94.01
23166;BME280;11751;42.700;24.170;2022-10-23T05:46:41;94555.41;;;9.09;94.04
23166;BME280;11751;42.700;24.170;2022-10-23T05:49:07;94547.25;;;9.11;94.00
23166;BME280;11751;42.700;24.170;2022-10-23T05:51:35;94547.69;;;9.15;93.99
23166;BME280;11751;42.700;24.170;2022-10-23T05:54:01;94537.38;;;9.23;93.27
23166;BME280;11751;42.700;24.170;2022-10-23T05:56:26;94554.44;;;9.32;93.58
23166;BME280;11751;42.700;24.170;2022-10-23T05:58:51;94566.81;;;9.24;94.08
23166;BME280;11751;42.700;24.170;2022-10-23T06:01:17;94571.09;;;9.25;95.27
23166;BME280;11751;42.700;24.170;2022-10-23T06:03:43;94580.88;;;9.44;94.25
23166;BME280;11751;42.700;24.170;2022-10-23T06:06:08;94574.75;;;9.59;93.35
23166;BME280;11751;42.700;24.170;2022-10-23T06:08:34;94558.81;;;9.67;92.63
23166;BME280;11751;42.700;24.170;2022-10-23T06:11:11;94583.00;;;9.77;92.51
23166;BME280;11751;42.700;24.170;2022-10-23T06:13:37;94569.53;;;9.89;92.06
23166;BME280;11751;42.700;24.170;2022-10-23T06:16:13;94576.41;;;9.88;92.58
23166;BME280;11751;42.700;24.170;2022-10-23T06:18:39;94574.44;;;9.96;92.92
23166;BME280;11751;42.700;24.170;2022-10-23T06:21:05;94579.72;;;10.12;92.83
23166;BME280;11751;42.700;24.170;2022-10-23T06:23:31;94589.25;;;10.29;92.07
23166;BME280;11751;42.700;24.170;2022-10-23T06:25:57;94597.63;;;10.42;91.63
23166;BME280;11751;42.700;24.170;2022-10-23T06:28:23;94600.41;;;10.42;92.49
23166;BME280;11751;42.700;24.170;2022-10-23T06:30:48;94595.44;;;10.69;91.47
23166;BME280;11751;42.700;24.170;2022-10-23T06:33:13;94593.50;;;10.84;91.16
23166;BME280;11751;42.700;24.170;2022-10-23T06:35:39;94607.66;;;10.99;90.94
23166;BME280;11751;42.700;24.170;2022-10-23T06:38:04;94608.06;;;11.03;90.52
23166;BME280;11751;42.700;24.170;2022-10-23T06:40:30;94604.91;;;11.27;89.71
23166;BME280;11751;42.700;24.170;2022-10-23T06:42:55;94606.91;;;11.47;89.13
23166;BME280;11751;42.700;24.170;2022-10-23T06:45:21;94599.31;;;11.55;89.04
23166;BME280;11751;42.700;24.170;2022-10-23T06:47:49;94600.03;;;11.76;88.36
23166;BME280;11751;42.700;24.170;2022-10-23T06:50:15;94592.66;;;12.00;86.98
23166;BME280;11751;42.700;24.170;2022-10-23T06:52:41;94593.09;;;12.19;85.94
23166;BME280;11751;42.700;24.170;2022-10-23T06:55:07;94604.25;;;12.47;85.14
23166;BME280;11751;42.700;24.170;2022-10-23T06:57:33;94608.59;;;12.63;83.46
23166;BME280;11751;42.700;24.170;2022-10-23T06:59:58;94614.63;;;12.82;82.26
23166;BME280;11751;42.700;24.170;2022-10-23T07:02:23;94611.34;;;13.06;80.68
23166;BME280;11751;42.700;24.170;2022-10-23T07:04:49;94613.56;;;13.22;79.48
23166;BME280;11751;42.700;24.170;2022-10-23T07:07:14;94605.91;;;13.23;78.54
23166;BME280;11751;42.700;24.170;2022-10-23T07:09:40;94595.59;;;13.40;77.79
23166;BME280;11751;42.700;24.170;2022-10-23T07:12:05;94596.72;;;13.45;77.62
23166;BME280;11751;42.700;24.170;2022-10-23T07:14:31;94596.50;;;13.58;78.42
23166;BME280;11751;42.700;24.170;2022-10-23T07:16:57;94609.97;;;13.66;77.94
23166;BME280;11751;42.700;24.170;2022-10-23T07:19:22;94609.97;;;13.81;77.09
23166;BME280;11751;42.700;24.170;2022-10-23T07:21:49;94620.66;;;13.90;77.15
23166;BME280;11751;42.700;24.170;2022-10-23T07:24:15;94612.53;;;14.02;76.48
23166;BME280;11751;42.700;24.170;2022-10-23T07:26:40;94614.44;;;14.14;75.49
23166;BME280;11751;42.700;24.170;2022-10-23T07:29:05;94620.16;;;14.39;75.17
23166;BME280;11751;42.700;24.170;2022-10-23T07:31:32;94618.59;;;14.45;74.58
23166;BME280;11751;42.700;24.170;2022-10-23T07:33:57;94614.94;;;14.67;74.83
23166;BME280;11751;42.700;24.170;2022-10-23T07:36:23;94612.81;;;14.75;74.54
23166;BME280;11751;42.700;24.170;2022-10-23T07:38:50;94623.22;;;14.97;72.84
23166;BME280;11751;42.700;24.170;2022-10-23T07:41:15;94630.66;;;15.09;72.52
23166;BME280;11751;42.700;24.170;2022-10-23T07:43:41;94633.31;;;15.39;72.15
23166;BME280;11751;42.700;24.170;2022-10-23T07:46:06;94630.66;;;15.65;71.30
23166;BME280;11751;42.700;24.170;2022-10-23T07:48:34;94634.88;;;15.98;70.72
23166;BME280;11751;42.700;24.170;2022-10-23T07:51:03;94615.09;;;16.15;69.56
23166;BME280;11751;42.700;24.170;2022-10-23T07:53:32;94623.41;;;16.30;69.37
23166;BME280;11751;42.700;24.170;2022-10-23T07:56:00;94619.00;;;16.36;69.83
23166;BME280;11751;42.700;24.170;2022-10-23T07:58:27;94627.25;;;16.59;69.75
23166;BME280;11751;42.700;24.170;2022-10-23T08:00:57;94617.41;;;16.77;69.33
23166;BME280;11751;42.700;24.170;2022-10-23T08:03:32;94613.66;;;17.01;67.98
23166;BME280;11751;42.700;24.170;2022-10-23T08:05:58;94618.25;;;16.96;68.13
23166;BME280;11751;42.700;24.170;2022-10-23T08:08:24;94620.19;;;16.94;68.29
23166;BME280;11751;42.700;24.170;2022-10-23T08:10:51;94615.16;;;17.02;67.72
23166;BME280;11751;42.700;24.170;2022-10-23T08:13:18;94623.88;;;17.13;66.47
23166;BME280;11751;42.700;24.170;2022-10-23T08:15:48;94622.06;;;17.34;66.72
23166;BME280;11751;42.700;24.170;2022-10-23T08:18:14;94614.81;;;17.41;66.93
23166;BME280;11751;42.700;24.170;2022-10-23T08:20:41;94625.03;;;17.72;66.23
23166;BME280;11751;42.700;24.170;2022-10-23T08:23:07;94615.81;;;17.81;64.63
23166;BME280;11751;42.700;24.170;2022-10-23T08:25:33;94616.47;;;18.08;64.72
23166;BME280;11751;42.700;24.170;2022-10-23T08:27:59;94614.25;;;18.06;64.50
23166;BME280;11751;42.700;24.170;2022-10-23T08:30:25;94606.03;;;18.01;64.10
23166;BME280;11751;42.700;24.170;2022-10-23T08:32:50;94617.41;;;18.10;64.70
23166;BME280;11751;42.700;24.170;2022-10-23T08:35:16;94609.06;;;18.22;64.52
23166;BME280;11751;42.700;24.170;2022-10-23T08:37:41;94608.03;;;18.27;64.75
23166;BME280;11751;42.700;24.170;2022-10-23T08:40:20;94610.25;;;18.38;63.94
23166;BME280;11751;42.700;24.170;2022-10-23T08:45:50;94614.75;;;18.41;64.48
23166;BME280;11751;42.700;24.170;2022-10-23T08:48:29;94602.81;;;18.71;63.81
23166;BME280;11751;42.700;24.170;2022-10-23T08:50:59;94615.31;;;18.87;60.00
23166;BME280;11751;42.700;24.170;2022-10-23T08:54:24;94610.22;;;18.94;61.04
23166;BME280;11751;42.700;24.170;2022-10-23T08:56:32;94604.22;;;19.09;59.70
23166;BME280;11751;42.700;24.170;2022-10-23T08:59:05;94608.41;;;19.27;59.95
23166;BME280;11751;42.700;24.170;2022-10-23T09:02:13;94612.88;;;19.30;60.67
23166;BME280;11751;42.700;24.170;2022-10-23T09:04:42;94606.44;;;19.30;60.11
23166;BME280;11751;42.700;24.170;2022-10-23T09:07:40;94615.81;;;19.42;56.49
23166;BME280;11751;42.700;24.170;2022-10-23T09:13:05;94617.22;;;19.71;54.14
23166;BME280;11751;42.700;24.170;2022-10-23T09:15:41;94616.41;;;19.80;52.95
23166;BME280;11751;42.700;24.170;2022-10-23T09:18:12;94614.41;;;19.92;57.41
23166;BME280;11751;42.700;24.170;2022-10-23T09:20:39;94617.25;;;19.92;56.42
23166;BME280;11751;42.700;24.170;2022-10-23T09:23:17;94611.13;;;19.86;60.07
23166;BME280;11751;42.700;24.170;2022-10-23T09:25:45;94604.50;;;19.93;60.76
23166;BME280;11751;42.700;24.170;2022-10-23T09:28:25;94608.72;;;19.92;61.39
23166;BME280;11751;42.700;24.170;2022-10-23T09:30:51;94591.84;;;20.15;60.67
23166;BME280;11751;42.700;24.170;2022-10-23T09:33:26;94589.44;;;20.21;60.32
23166;BME280;11751;42.700;24.170;2022-10-23T09:43:29;94591.84;;;20.15;60.81
23166;BME280;11751;42.700;24.170;2022-10-23T09:45:59;94586.69;;;20.23;60.21
23166;BME280;11751;42.700;24.170;2022-10-23T09:48:25;94591.97;;;20.17;61.80
23166;BME280;11751;42.700;24.170;2022-10-23T09:50:58;94590.09;;;20.10;61.85
23166;BME280;11751;42.700;24.170;2022-10-23T09:53:34;94580.66;;;20.28;61.48
23166;BME280;11751;42.700;24.170;2022-10-23T09:58:55;94599.03;;;20.16;62.07
23166;BME280;11751;42.700;24.170;2022-10-23T10:01:55;94597.41;;;20.34;61.42
23166;BME280;11751;42.700;24.170;2022-10-23T10:04:38;94583.31;;;20.36;61.16
23166;BME280;11751;42.700;24.170;2022-10-23T10:07:20;94577.75;;;20.59;60.06
23166;BME280;11751;42.700;24.170;2022-10-23T10:09:46;94576.97;;;20.58;60.72
23166;BME280;11751;42.700;24.170;2022-10-23T10:12:34;94594.13;;;20.69;57.52
23166;BME280;11751;42.700;24.170;2022-10-23T10:15:12;94580.47;;;20.57;48.74
23166;BME280;11751;42.700;24.170;2022-10-23T10:18:06;94588.19;;;20.45;56.11
23166;BME280;11751;42.700;24.170;2022-10-23T10:20:58;94571.81;;;20.66;56.17
23166;BME280;11751;42.700;24.170;2022-10-23T10:32:44;94575.81;;;20.72;46.42
23166;BME280;11751;42.700;24.170;2022-10-23T10:37:18;94573.66;;;20.82;46.01
23166;BME280;11751;42.700;24.170;2022-10-23T10:45:52;94553.31;;;20.76;44.60
23166;BME280;11751;42.700;24.170;2022-10-23T10:48:48;94567.59;;;20.88;44.74
23166;BME280;11751;42.700;24.170;2022-10-23T10:56:34;94570.16;;;21.16;42.39
23166;BME280;11751;42.700;24.170;2022-10-23T10:59:15;94560.28;;;21.29;42.08
23166;BME280;11751;42.700;24.170;2022-10-23T11:02:10;94558.56;;;21.35;41.74
23166;BME280;11751;42.700;24.170;2022-10-23T11:04:59;94550.22;;;21.16;41.44
23166;BME280;11751;42.700;24.170;2022-10-23T11:07:33;94555.44;;;21.20;40.88
23166;BME280;11751;42.700;24.170;2022-10-23T11:09:59;94558.06;;;21.27;41.82
23166;BME280;11751;42.700;24.170;2022-10-23T11:12:27;94550.75;;;21.36;40.74
23166;BME280;11751;42.700;24.170;2022-10-23T11:14:54;94547.16;;;21.47;40.10
23166;BME280;11751;42.700;24.170;2022-10-23T11:17:24;94538.13;;;21.50;39.34
23166;BME280;11751;42.700;24.170;2022-10-23T11:31:34;94522.50;;;21.51;38.63
23166;BME280;11751;42.700;24.170;2022-10-23T11:36:51;94523.00;;;21.48;39.02
23166;BME280;11751;42.700;24.170;2022-10-23T11:39:22;94518.78;;;21.49;38.56
23166;BME280;11751;42.700;24.170;2022-10-23T11:42:13;94519.44;;;21.70;38.97
23166;BME280;11751;42.700;24.170;2022-10-23T11:44:46;94510.28;;;21.71;39.88
23166;BME280;11751;42.700;24.170;2022-10-23T11:49:50;94499.19;;;21.89;39.19
23166;BME280;11751;42.700;24.170;2022-10-23T11:52:23;94505.69;;;21.78;38.33
23166;BME280;11751;42.700;24.170;2022-10-23T11:55:03;94505.16;;;21.93;38.29
23166;BME280;11751;42.700;24.170;2022-10-23T11:57:39;94517.56;;;21.86;38.11
23166;BME280;11751;42.700;24.170;2022-10-23T12:00:20;94506.91;;;21.75;37.34
23166;BME280;11751;42.700;24.170;2022-10-23T12:02:50;94511.25;;;21.76;37.59
23166;BME280;11751;42.700;24.170;2022-10-23T12:05:34;94503.44;;;21.88;38.08
23166;BME280;11751;42.700;24.170;2022-10-23T12:08:02;94501.22;;;21.75;37.58
23166;BME280;11751;42.700;24.170;2022-10-23T12:10:33;94504.69;;;21.62;38.47
23166;BME280;11751;42.700;24.170;2022-10-23T12:13:01;94500.59;;;21.65;39.28
23166;BME280;11751;42.700;24.170;2022-10-23T12:15:29;94494.50;;;21.82;38.91
23166;BME280;11751;42.700;24.170;2022-10-23T12:18:07;94498.84;;;21.83;38.69
23166;BME280;11751;42.700;24.170;2022-10-23T12:20:50;94494.97;;;21.90;38.56
23166;BME280;11751;42.700;24.170;2022-10-23T12:23:37;94496.69;;;22.06;39.18
23166;BME280;11751;42.700;24.170;2022-10-23T12:31:29;94484.34;;;21.90;39.50
23166;BME280;11751;42.700;24.170;2022-10-23T12:40:06;94499.00;;;21.62;40.57
23166;BME280;11751;42.700;24.170;2022-10-23T12:42:31;94497.75;;;21.65;40.60
23166;BME280;11751;42.700;24.170;2022-10-23T12:47:28;94482.63;;;21.74;40.67
23166;BME280;11751;42.700;24.170;2022-10-23T12:49:54;94483.72;;;21.80;40.75
23166;BME280;11751;42.700;24.170;2022-10-23T12:52:20;94488.81;;;21.82;40.65
23166;BME280;11751;42.700;24.170;2022-10-23T12:54:46;94492.88;;;21.79;40.19
23166;BME280;11751;42.700;24.170;2022-10-23T12:59:43;94486.44;;;21.90;41.06
23166;BME280;11751;42.700;24.170;2022-10-23T13:02:24;94497.44;;;21.95;42.12
23166;BME280;11751;42.700;24.170;2022-10-23T13:04:52;94493.13;;;21.94;40.72
23166;BME280;11751;42.700;24.170;2022-10-23T13:07:23;94481.09;;;21.96;41.49
23166;BME280;11751;42.700;24.170;2022-10-23T13:09:50;94482.38;;;21.81;39.88
23166;BME280;11751;42.700;24.170;2022-10-23T13:12:25;94494.00;;;21.85;39.42
23166;BME280;11751;42.700;24.170;2022-10-23T13:22:49;94486.09;;;21.50;39.06
23166;BME280;11751;42.700;24.170;2022-10-23T13:25:21;94489.78;;;21.52;39.43
23166;BME280;11751;42.700;24.170;2022-10-23T13:27:46;94486.34;;;21.65;40.12
23166;BME280;11751;42.700;24.170;2022-10-23T13:30:32;94493.25;;;21.39;39.49
23166;BME280;11751;42.700;24.170;2022-10-23T13:32:58;94498.22;;;21.39;39.31
23166;BME280;11751;42.700;24.170;2022-10-23T13:35:25;94498.47;;;21.31;38.95
23166;BME280;11751;42.700;24.170;2022-10-23T13:37:50;94500.81;;;21.23;38.05
23166;BME280;11751;42.700;24.170;2022-10-23T13:40:26;94499.47;;;21.24;38.64
23166;BME280;11751;42.700;24.170;2022-10-23T13:42:53;94511.22;;;21.19;38.27
23166;BME280;11751;42.700;24.170;2022-10-23T13:45:22;94493.41;;;21.18;38.23
23166;BME280;11751;42.700;24.170;2022-10-23T13:47:48;94494.75;;;21.17;38.14
23166;BME280;11751;42.700;24.170;2022-10-23T13:50:14;94498.34;;;21.18;37.13
23166;BME280;11751;42.700;24.170;2022-10-23T13:52:39;94507.63;;;21.18;37.87
23166;BME280;11751;42.700;24.170;2022-10-23T13:55:24;94504.66;;;21.16;37.73
23166;BME280;11751;42.700;24.170;2022-10-23T13:57:50;94509.97;;;21.10;37.55
23166;BME280;11751;42.700;24.170;2022-10-23T14:00:16;94495.47;;;21.06;37.54
23166;BME280;11751;42.700;24.170;2022-10-23T14:02:42;94498.06;;;21.02;37.51
23166;BME280;11751;42.700;24.170;2022-10-23T14:05:09;94506.13;;;21.06;37.88
23166;BME280;11751;42.700;24.170;2022-10-23T14:07:34;94504.66;;;21.16;37.84
23166;BME280;11751;42.700;24.170;2022-10-23T14:10:00;94512.94;;;21.12;37.64
23166;BME280;11751;42.700;24.170;2022-10-23T14:12:25;94509.00;;;21.17;37.75
23166;BME280;11751;42.700;24.170;2022-10-23T14:14:52;94512.44;;;21.04;37.89
23166;BME280;11751;42.700;24.170;2022-10-23T14:17:18;94509.72;;;20.95;39.06
23166;BME280;11751;42.700;24.170;2022-10-23T14:19:44;94509.94;;;20.99;38.82
23166;BME280;11751;42.700;24.170;2022-10-23T14:22:10;94502.91;;;21.11;38.70
23166;BME280;11751;42.700;24.170;2022-10-23T14:24:36;94504.53;;;21.14;38.66
23166;BME280;11751;42.700;24.170;2022-10-23T14:27:01;94503.44;;;21.19;38.48
23166;BME280;11751;42.700;24.170;2022-10-23T14:29:27;94504.91;;;21.20;39.28
23166;BME280;11751;42.700;24.170;2022-10-23T14:31:52;94507.25;;;21.12;39.54
23166;BME280;11751;42.700;24.170;2022-10-23T14:34:18;94501.19;;;21.06;39.68
23166;BME280;11751;42.700;24.170;2022-10-23T14:36:43;94503.16;;;21.15;40.08
23166;BME280;11751;42.700;24.170;2022-10-23T14:39:09;94498.19;;;21.04;39.66
23166;BME280;11751;42.700;24.170;2022-10-23T14:41:34;94506.13;;;21.06;39.55
23166;BME280;11751;42.700;24.170;2022-10-23T14:43:59;94502.03;;;20.97;39.63
23166;BME280;11751;42.700;24.170;2022-10-23T14:46:25;94501.06;;;20.72;40.19
23166;BME280;11751;42.700;24.170;2022-10-23T14:48:52;94492.34;;;20.79;39.73
23166;BME280;11751;42.700;24.170;2022-10-23T14:51:22;94499.63;;;20.82;40.08
23166;BME280;11751;42.700;24.170;2022-10-23T14:53:48;94504.53;;;20.70;40.64
23166;BME280;11751;42.700;24.170;2022-10-23T14:56:14;94501.56;;;20.68;41.05
23166;BME280;11751;42.700;24.170;2022-10-23T14:58:40;94508.66;;;20.47;41.62